.
WxDataArchive / Data Records for 2006-01-31
2006-01-30 January 2006 2006-02-01

Data Records for Tuesday, 31 January 2006

Time	Temp	Chill	HIndex	Humid	Dewpt	 Wind 	HiWind	WindDir	Rain 	Barom 
-----	----	-----	------	-----	-----	------	------	-------	-----	----- 
00:00	32.8	32.8	32.8	89	29.9	2	4	270	0.00	29.777 
00:05	32.7	32.7	32.7	89	29.8	2	3	270	0.00	29.777 
00:10	32.7	32.7	32.7	88	29.5	2	3	270	0.00	29.777 
00:15	32.7	32.7	32.7	88	29.5	2	4	270	0.00	29.783 
00:20	32.5	32.5	32.5	88	29.3	2	4	270	0.00	29.783 
00:25	32.5	32.5	32.5	88	29.3	2	7	248	0.00	29.783 
00:30	32.5	32.5	32.5	87	29.1	2	7	270	0.00	29.784 
00:35	32.4	32.4	32.4	87	29.0	1	3	315	0.00	29.784 
00:40	32.4	32.4	32.4	84	28.1	2	6	270	0.00	29.784 
00:45	32.4	32.4	32.4	84	28.1	2	6	270	0.00	29.788 
00:50	32.2	32.2	32.2	84	27.9	1	3	292	0.00	29.788 
00:55	32.2	32.2	32.2	84	27.9	1	3	338	0.00	29.788 
01:00	32.2	32.2	32.2	85	28.2	1	4	315	0.00	29.790 
01:05	32.2	32.2	32.2	85	28.2	2	3	292	0.00	29.790 
01:10	32.2	32.2	32.2	84	27.9	2	4	270	0.00	29.790 
01:15	32.1	32.1	32.1	83	27.5	2	4	270	0.00	29.795 
01:20	32.1	32.1	32.1	83	27.5	1	5	315	0.00	29.795 
01:25	32.1	32.1	32.1	82	27.2	1	4	270	0.00	29.795 
01:30	32.1	32.1	32.1	82	27.2	2	4	315	0.00	29.800 
01:35	31.9	31.9	31.9	82	27.0	2	5	270	0.00	29.800 
01:40	31.9	31.9	31.9	81	26.7	2	5	315	0.00	29.800 
01:45	31.9	31.9	31.9	81	26.7	2	5	292	0.00	29.807 
01:50	31.9	31.9	31.9	81	26.7	2	4	270	0.00	29.807 
01:55	31.9	31.9	31.9	81	26.7	2	6	315	0.00	29.807 
02:00	31.9	31.9	31.9	80	26.4	2	5	315	0.00	29.809 
02:05	31.8	31.8	31.8	80	26.3	2	6	338	0.00	29.809 
02:10	31.8	31.8	31.8	80	26.3	2	5	292	0.00	29.809 
02:15	31.8	31.8	31.8	80	26.3	1	5	338	0.00	29.810 
02:20	31.6	31.6	31.6	80	26.2	2	4	338	0.00	29.810 
02:25	31.6	31.6	31.6	81	26.5	1	4	292	0.00	29.810 
02:30	31.6	31.6	31.6	81	26.5	1	3	315	0.00	29.817 
02:35	31.5	31.5	31.5	81	26.4	2	5	315	0.00	29.817 
02:40	31.5	31.5	31.5	81	26.4	1	4	270	0.00	29.817 
02:45	31.5	31.5	31.5	81	26.4	1	3	315	0.00	29.825 
02:50	31.5	31.5	31.5	81	26.4	1	4	315	0.00	29.825 
02:55	31.5	31.5	31.5	82	26.7	1	4	315	0.00	29.825 
03:00	31.5	31.5	31.5	82	26.7	1	4	270	0.00	29.831 
03:05	31.5	31.5	31.5	82	26.7	2	5	270	0.00	29.831 
03:10	31.5	31.5	31.5	82	26.7	1	5	270	0.00	29.831 
03:15	31.5	31.5	31.5	83	26.9	1	4	270	0.00	29.833 
03:20	31.3	31.3	31.3	83	26.7	2	4	338	0.00	29.833 
03:25	31.3	31.3	31.3	83	26.7	2	4	338	0.00	29.833 
03:30	31.2	31.2	31.2	84	26.9	2	4	338	0.00	29.831 
03:35	31.2	31.2	31.2	84	26.9	1	3	338	0.00	29.831 
03:40	31.2	31.2	31.2	84	26.9	1	3	338	0.00	29.831 
03:45	31.2	31.2	31.2	85	27.2	1	2	292	0.00	29.835 
03:50	31.2	31.2	31.2	85	27.2	1	4	270	0.00	29.835 
03:55	31.2	31.2	31.2	85	27.2	1	4	338	0.00	29.835 
04:00	31.2	31.2	31.2	85	27.2	1	4	270	0.00	29.836 
04:05	31.3	31.3	31.3	85	27.3	1	3	292	0.00	29.836 
04:10	31.3	31.3	31.3	84	27.0	1	3	270	0.00	29.836 
04:15	31.3	31.3	31.3	84	27.0	1	5	270	0.00	29.836 
04:20	31.3	31.3	31.3	83	26.7	2	5	270	0.00	29.836 
04:25	31.5	31.5	31.5	83	26.9	1	4	270	0.00	29.836 
04:30	31.5	31.5	31.5	82	26.7	1	4	292	0.00	29.836 
04:35	31.5	31.5	31.5	82	26.7	1	2	315	0.00	29.836 
04:40	31.5	31.5	31.5	82	26.7	1	4	270	0.00	29.836 
04:45	31.5	31.5	31.5	82	26.7	1	4	292	0.00	29.839 
04:50	31.6	31.6	31.6	82	26.7	1	3	292	0.00	29.839 
04:55	31.6	31.6	31.6	81	26.5	1	4	270	0.00	29.839 
05:00	31.6	31.6	31.6	82	26.7	1	3	270	0.00	29.851 
05:05	31.6	31.6	31.6	82	26.7	2	5	270	0.00	29.851 
05:10	31.6	31.6	31.6	82	26.7	1	2	270	0.00	29.851 
05:15	31.6	31.6	31.6	81	26.5	1	3	270	0.00	29.854 
05:20	31.6	31.6	31.6	82	26.7	1	4	248	0.00	29.854 
05:25	31.6	31.6	31.6	82	26.7	1	3	270	0.00	29.854 
05:30	31.6	31.6	31.6	82	26.7	1	3	248	0.00	29.855 
05:35	31.6	31.6	31.6	82	26.7	0	1	248	0.00	29.855 
05:40	31.6	31.6	31.6	82	26.7	1	3	248	0.00	29.855 
05:45	31.8	31.8	31.8	82	26.9	2	4	270	0.00	29.867 
05:50	31.8	31.8	31.8	82	26.9	1	3	270	0.00	29.867 
05:55	31.8	31.8	31.8	82	26.9	1	3	270	0.00	29.867 
06:00	31.8	31.8	31.8	82	26.9	2	4	270	0.00	29.870 
06:05	31.8	31.8	31.8	82	26.9	1	3	270	0.00	29.870 
06:10	31.8	31.8	31.8	82	26.9	1	7	248	0.00	29.870 
06:15	31.8	31.8	31.8	82	26.9	1	3	292	0.00	29.873 
06:20	31.8	31.8	31.8	83	27.2	1	2	315	0.00	29.873 
06:25	31.8	31.8	31.8	81	26.6	2	7	248	0.00	29.873 
06:30	31.9	31.9	31.9	82	27.0	1	3	270	0.00	29.879 
06:35	31.9	31.9	31.9	82	27.0	1	4	270	0.00	29.879 
06:40	31.9	31.9	31.9	82	27.0	1	2	270	0.00	29.879 
06:45	31.9	31.9	31.9	82	27.0	2	5	270	0.00	29.883 
06:50	31.9	31.9	31.9	82	27.0	1	4	270	0.00	29.883 
06:55	31.9	31.9	31.9	82	27.0	2	5	248	0.00	29.883 
07:00	31.9	31.9	31.9	82	27.0	1	4	270	0.00	29.886 
07:05	31.9	31.9	31.9	83	27.3	1	2	248	0.00	29.886 
07:10	31.9	31.9	31.9	83	27.3	1	3	315	0.00	29.886 
07:15	31.9	31.9	31.9	83	27.3	2	5	292	0.00	29.899 
07:20	31.9	31.9	31.9	84	27.6	1	3	292	0.00	29.899 
07:25	31.9	31.9	31.9	84	27.6	1	3	248	0.00	29.899 
07:30	31.9	31.9	31.9	84	27.6	1	3	248	0.00	29.901 
07:35	31.8	31.8	31.8	85	27.8	0	2	270	0.00	29.901 
07:40	31.8	31.8	31.8	85	27.8	1	3	270	0.00	29.901 
07:45	31.8	31.8	31.8	86	28.1	1	3	270	0.00	29.903 
07:50	31.8	31.8	31.8	86	28.1	1	4	248	0.00	29.903 
07:55	31.8	31.8	31.8	86	28.1	1	3	248	0.00	29.903 
08:00	31.8	31.8	31.8	87	28.4	1	2	248	0.00	29.903 
08:05	31.8	31.8	31.8	87	28.4	0	2	248	0.00	29.903 
08:10	31.6	31.6	31.6	87	28.2	1	2	248	0.00	29.903 
08:15	31.6	31.6	31.6	87	28.2	1	3	248	0.00	29.908 
08:20	31.6	31.6	31.6	87	28.2	1	3	248	0.00	29.908 
08:25	31.8	31.8	31.8	87	28.4	1	2	248	0.00	29.908 
08:30	31.8	31.8	31.8	86	28.1	1	4	248	0.00	29.915 
08:35	31.8	31.8	31.8	86	28.1	1	3	248	0.00	29.915 
08:40	31.8	31.8	31.8	86	28.1	1	2	270	0.00	29.915 
08:45	31.9	31.9	31.9	85	27.9	1	3	248	0.00	29.917 
08:50	31.9	31.9	31.9	85	27.9	1	3	248	0.00	29.917 
08:55	31.9	31.9	31.9	85	27.9	1	2	248	0.00	29.917 
09:00	32.1	32.1	32.1	84	27.8	0	2	248	0.00	29.920 
09:05	32.1	32.1	32.1	82	27.2	1	3	270	0.00	29.920 
09:10	32.2	32.2	32.2	81	27.0	1	3	270	0.00	29.920 
09:15	32.4	32.4	32.4	80	26.9	1	3	248	0.00	29.924 
09:20	32.4	32.4	32.4	81	27.2	1	3	270	0.00	29.924 
09:25	32.4	32.4	32.4	81	27.2	1	3	248	0.00	29.924 
09:30	32.4	32.4	32.4	80	26.9	1	3	270	0.00	29.933 
09:35	32.5	32.5	32.5	81	27.3	1	2	270	0.00	29.933 
09:40	32.5	32.5	32.5	82	27.6	1	2	270	0.00	29.933 
09:45	32.5	32.5	32.5	82	27.6	1	3	248	0.00	29.933 
09:50	32.5	32.5	32.5	82	27.6	2	4	248	0.00	29.933 
09:55	32.5	32.5	32.5	82	27.6	1	3	248	0.00	29.933 
10:00	32.5	32.5	32.5	82	27.6	2	4	248	0.00	29.936 
10:05	32.5	32.5	32.5	82	27.6	1	3	270	0.00	29.936 
10:10	32.5	32.5	32.5	82	27.6	2	4	270	0.00	29.936 
10:15	32.5	32.5	32.5	82	27.6	1	3	270	0.00	29.945 
10:20	32.5	32.5	32.5	82	27.6	2	7	248	0.00	29.945 
10:25	32.5	32.5	32.5	82	27.6	2	5	248	0.00	29.945 
10:30	32.7	32.7	32.7	82	27.8	1	3	248	0.00	29.949 
10:35	32.7	32.7	32.7	83	28.1	2	5	248	0.00	29.949 
10:40	32.7	32.7	32.7	83	28.1	2	5	248	0.00	29.949 
10:45	32.7	32.7	32.7	83	28.1	2	4	248	0.00	29.953 
10:50	32.8	32.8	32.8	83	28.2	1	4	248	0.00	29.953 
10:55	32.8	32.8	32.8	82	27.9	3	6	248	0.00	29.953 
11:00	32.8	32.8	32.8	83	28.2	2	4	248	0.00	29.962 
11:05	32.8	32.8	32.8	82	27.9	2	6	270	0.00	29.962 
11:10	32.8	32.8	32.8	82	27.9	2	6	248	0.00	29.962 
11:15	32.9	32.9	32.9	83	28.3	1	3	248	0.00	29.963 
11:20	32.9	32.9	32.9	83	28.3	1	4	248	0.00	29.963 
11:25	33.1	33.1	33.1	82	28.2	1	4	248	0.00	29.963 
11:30	33.1	33.1	33.1	82	28.2	2	6	248	0.00	29.964 
11:35	33.1	33.1	33.1	82	28.2	2	4	270	0.00	29.964 
11:40	33.2	33.2	33.2	81	28.0	1	4	248	0.00	29.964 
11:45	33.2	33.2	33.2	81	28.0	2	5	248	0.00	29.965 
11:50	33.4	33.4	33.4	82	28.5	1	4	248	0.00	29.965 
11:55	33.4	33.4	33.4	81	28.2	3	7	248	0.00	29.965 
12:00	33.4	33.4	33.4	81	28.2	2	7	248	0.00	29.963 
12:05	33.4	33.4	33.4	81	28.2	3	7	270	0.00	29.963 
12:10	33.4	33.4	33.4	81	28.2	3	7	248	0.00	29.963 
12:15	33.4	33.4	33.4	82	28.5	3	7	248	0.00	29.965 
12:20	33.4	29.7	33.4	81	28.2	4	11	270	0.00	29.965 
12:25	33.5	33.5	33.5	82	28.6	2	6	248	0.00	29.965 
12:30	33.5	33.5	33.5	83	28.9	2	7	248	0.00	29.969 
12:35	33.7	33.7	33.7	83	29.1	2	3	270	0.00	29.969 
12:40	33.7	33.7	33.7	83	29.1	2	6	248	0.00	29.969 
12:45	33.7	33.7	33.7	83	29.1	1	3	248	0.00	29.964 
12:50	33.5	33.5	33.5	82	28.6	3	6	248	0.00	29.964 
12:55	33.5	33.5	33.5	82	28.6	3	7	248	0.00	29.964 
13:00	33.5	33.5	33.5	82	28.6	3	5	248	0.00	29.964 
13:05	33.4	33.4	33.4	82	28.5	3	9	270	0.00	29.964 
13:10	33.4	33.4	33.4	82	28.5	3	6	248	0.00	29.964 
13:15	33.2	33.2	33.2	83	28.6	2	5	270	0.00	29.965 
13:20	33.2	33.2	33.2	82	28.3	2	6	270	0.00	29.965 
13:25	33.2	33.2	33.2	81	28.0	2	7	270	0.00	29.965 
13:30	33.2	33.2	33.2	81	28.0	2	6	270	0.00	29.966 
13:35	33.4	33.4	33.4	82	28.5	1	2	315	0.00	29.966 
13:40	33.5	33.5	33.5	82	28.6	2	4	270	0.01	29.966 
13:45	33.7	33.7	33.7	79	27.9	2	6	270	0.00	29.963 
13:50	33.8	33.8	33.8	78	27.7	2	6	270	0.00	29.963 
13:55	33.8	33.8	33.8	78	27.7	2	4	292	0.00	29.963 
14:00	34.0	34.0	34.0	76	27.2	2	4	248	0.00	29.963 
14:05	34.1	34.1	34.1	74	26.7	2	4	270	0.00	29.963 
14:10	34.1	34.1	34.1	76	27.3	2	4	270	0.00	29.963 
14:15	34.1	34.1	34.1	74	26.7	2	5	248	0.00	29.964 
14:20	34.0	34.0	34.0	73	26.3	2	5	248	0.00	29.964 
14:25	34.1	34.1	34.1	74	26.7	1	3	270	0.00	29.964 
14:30	34.1	34.1	34.1	72	26.0	1	3	248	0.00	29.963 
14:35	34.0	34.0	34.0	70	25.3	2	6	270	0.00	29.963 
14:40	34.0	34.0	34.0	71	25.6	2	4	270	0.00	29.963 
14:45	33.8	33.8	33.8	72	25.7	2	4	270	0.00	29.964 
14:50	33.7	33.7	33.7	73	26.0	1	3	315	0.00	29.964 
14:55	33.5	33.5	33.5	73	25.8	2	4	315	0.00	29.964 
15:00	33.5	33.5	33.5	73	25.8	2	5	270	0.00	29.964 
15:05	33.5	33.5	33.5	74	26.1	1	3	248	0.00	29.964 
15:10	33.7	33.7	33.7	74	26.3	1	3	292	0.00	29.964 
15:15	33.7	33.7	33.7	73	26.0	2	5	292	0.00	29.970 
15:20	33.5	33.5	33.5	72	25.5	2	4	270	0.00	29.970 
15:25	33.7	33.7	33.7	73	26.0	1	3	315	0.00	29.970 
15:30	33.8	33.8	33.8	73	26.1	1	4	315	0.00	29.977 
15:35	33.8	33.8	33.8	73	26.1	1	3	270	0.00	29.977 
15:40	33.8	33.8	33.8	71	25.4	1	3	292	0.00	29.977 
15:45	33.7	33.7	33.7	70	25.0	2	4	315	0.00	29.980 
15:50	33.7	33.7	33.7	71	25.3	2	4	292	0.00	29.980 
15:55	33.7	33.7	33.7	71	25.3	2	4	292	0.00	29.980 
16:00	33.5	33.5	33.5	71	25.1	2	4	315	0.00	29.981 
16:05	33.7	33.7	33.7	72	25.7	1	3	315	0.00	29.981 
16:10	33.7	33.7	33.7	71	25.3	1	3	292	0.00	29.981 
16:15	33.7	33.7	33.7	71	25.3	1	4	292	0.00	29.980 
16:20	33.8	33.8	33.8	72	25.7	1	3	270	0.00	29.980 
16:25	33.8	33.8	33.8	72	25.7	1	3	270	0.00	29.980 
16:30	33.7	33.7	33.7	72	25.7	1	3	270	0.00	29.981 
16:35	33.7	33.7	33.7	72	25.7	0	3	270	0.00	29.981 
16:40	33.5	33.5	33.5	72	25.5	1	2	315	0.00	29.981 
16:45	33.5	33.5	33.5	71	25.1	1	4	338	0.00	29.980 
16:50	33.4	33.4	33.4	72	25.4	1	2	270	0.00	29.980 
16:55	33.4	33.4	33.4	73	25.7	1	2	270	0.00	29.980 
17:00	33.4	33.4	33.4	73	25.7	1	2	270	0.00	29.986 
17:05	33.4	33.4	33.4	72	25.4	1	3	292	0.00	29.986 
17:10	33.4	33.4	33.4	72	25.4	1	3	270	0.00	29.986 
17:15	33.4	33.4	33.4	73	25.7	0	2	270	0.00	29.991 
17:20	33.4	33.4	33.4	72	25.4	0	2	270	0.00	29.991 
17:25	33.4	33.4	33.4	72	25.4	1	2	270	0.00	29.991 
17:30	33.4	33.4	33.4	73	25.7	1	2	270	0.00	29.994 
17:35	33.4	33.4	33.4	73	25.7	0	1	270	0.00	29.994 
17:40	33.2	33.2	33.2	72	25.2	1	2	338	0.00	29.994 
17:45	33.2	33.2	33.2	73	25.5	0	2	338	0.00	29.995 
17:50	33.2	33.2	33.2	74	25.8	0	3	270	0.00	29.995 
17:55	33.2	33.2	33.2	73	25.5	0	1	270	0.00	29.995 
18:00	33.2	33.2	33.2	74	25.8	0	2	270	0.00	29.998 
18:05	33.2	33.2	33.2	74	25.8	0	2	270	0.00	29.998 
18:10	33.2	33.2	33.2	73	25.5	2	5	270	0.00	29.998 
18:15	33.2	33.2	33.2	73	25.5	1	3	248	0.00	29.996 
18:20	33.2	33.2	33.2	72	25.2	2	7	248	0.00	29.996 
18:25	33.4	33.4	33.4	72	25.4	2	5	248	0.00	29.996 
18:30	33.4	33.4	33.4	72	25.4	2	5	248	0.00	29.997 
18:35	33.4	33.4	33.4	71	25.0	2	6	248	0.00	29.997 
18:40	33.2	33.2	33.2	71	24.8	2	5	248	0.00	29.997 
18:45	33.2	33.2	33.2	71	24.8	2	4	248	0.00	29.999 
18:50	33.2	33.2	33.2	72	25.2	1	3	248	0.00	29.999 
18:55	33.2	33.2	33.2	71	24.8	2	6	248	0.00	29.999 
19:00	33.2	33.2	33.2	71	24.8	2	7	248	0.00	30.002 
19:05	33.1	33.1	33.1	71	24.7	1	3	270	0.00	30.002 
19:10	33.1	33.1	33.1	71	24.7	1	3	248	0.00	30.002 
19:15	33.1	33.1	33.1	70	24.4	1	4	248	0.00	30.004 
19:20	33.1	33.1	33.1	71	24.7	1	4	225	0.00	30.004 
19:25	33.1	33.1	33.1	70	24.4	2	5	248	0.00	30.004 
19:30	33.1	33.1	33.1	70	24.4	1	3	248	0.00	30.006 
19:35	33.1	33.1	33.1	70	24.4	1	3	248	0.00	30.006 
19:40	33.1	33.1	33.1	71	24.7	1	3	248	0.00	30.006 
19:45	33.1	33.1	33.1	70	24.4	1	4	248	0.00	30.009 
19:50	33.1	33.1	33.1	71	24.7	1	3	248	0.00	30.009 
19:55	33.1	33.1	33.1	71	24.7	2	3	248	0.00	30.009 
20:00	33.2	33.2	33.2	71	24.8	2	4	248	0.00	30.012 
20:05	33.2	33.2	33.2	71	24.8	2	7	248	0.00	30.012 
20:10	33.2	33.2	33.2	71	24.8	1	4	248	0.00	30.012 
20:15	33.2	33.2	33.2	71	24.8	0	2	248	0.00	30.008 
20:20	33.1	33.1	33.1	71	24.7	0	2	248	0.00	30.008 
20:25	33.1	33.1	33.1	72	25.1	0	3	248	0.00	30.008 
20:30	33.1	33.1	33.1	72	25.1	0	2	248	0.00	30.007 
20:35	33.1	33.1	33.1	72	25.1	0	1	248	0.00	30.007 
20:40	32.9	32.9	32.9	72	24.9	0	0	---	0.00	30.007 
20:45	32.9	32.9	32.9	73	25.2	0	0	---	0.00	30.004 
20:50	32.8	32.8	32.8	73	25.1	0	0	---	0.00	30.004 
20:55	32.8	32.8	32.8	74	25.4	0	1	248	0.00	30.004 
21:00	32.7	32.7	32.7	74	25.3	0	1	248	0.00	30.002 
21:05	32.7	32.7	32.7	75	25.7	0	1	248	0.00	30.002 
21:10	32.5	32.5	32.5	75	25.5	0	1	248	0.00	30.002 
21:15	32.5	32.5	32.5	75	25.5	0	1	248	0.00	29.994 
21:20	32.5	32.5	32.5	74	25.2	0	2	248	0.00	29.994 
21:25	32.7	32.7	32.7	75	25.7	0	3	22	0.00	29.994 
21:30	32.7	32.7	32.7	75	25.7	0	1	22	0.00	29.985 
21:35	32.5	32.5	32.5	75	25.5	0	1	22	0.00	29.985 
21:40	32.5	32.5	32.5	76	25.8	0	1	22	0.00	29.985 
21:45	32.4	32.4	32.4	76	25.7	0	2	315	0.00	29.988 
21:50	32.4	32.4	32.4	76	25.7	1	4	202	0.00	29.988 
21:55	32.4	32.4	32.4	76	25.7	1	3	248	0.00	29.988 
22:00	32.4	32.4	32.4	75	25.4	1	3	248	0.00	29.985 
22:05	32.4	32.4	32.4	75	25.4	1	2	248	0.00	29.985 
22:10	32.4	32.4	32.4	76	25.7	0	1	248	0.00	29.985 
22:15	32.4	32.4	32.4	76	25.7	0	1	248	0.00	29.982 
22:20	32.2	32.2	32.2	75	25.2	1	3	248	0.00	29.982 
22:25	32.4	32.4	32.4	75	25.4	0	2	248	0.00	29.982 
22:30	32.4	32.4	32.4	76	25.7	0	1	248	0.00	29.980 
22:35	32.2	32.2	32.2	76	25.5	0	0	---	0.00	29.980 
22:40	32.1	32.1	32.1	76	25.4	0	0	---	0.00	29.980 
22:45	31.9	31.9	31.9	77	25.5	0	0	---	0.00	29.972 
22:50	31.8	31.8	31.8	77	25.4	0	0	---	0.00	29.972 
22:55	31.6	31.6	31.6	77	25.2	0	0	---	0.00	29.972 
23:00	31.3	31.3	31.3	77	24.9	0	0	---	0.00	29.969 
23:05	31.0	31.0	31.0	79	25.3	0	0	---	0.00	29.969 
23:10	30.9	30.9	30.9	79	25.2	0	0	---	0.00	29.969 
23:15	30.6	30.6	30.6	80	25.2	0	0	---	0.00	29.967 
23:20	30.4	30.4	30.4	80	25.0	0	1	248	0.00	29.967 
23:25	30.3	30.3	30.3	81	25.2	0	0	---	0.00	29.967 
23:30	30.1	30.1	30.1	81	25.0	0	0	---	0.00	29.968 
23:35	30.0	30.0	30.0	81	24.9	0	1	248	0.00	29.968 
23:40	30.0	30.0	30.0	82	25.2	0	2	158	0.00	29.968 
23:45	29.8	29.8	29.8	82	25.0	0	0	---	0.00	29.964 
23:50	29.5	29.5	29.5	82	24.7	0	0	---	0.00	29.964 
23:55	29.3	29.3	29.3	81	24.2	0	0	---	0.00	29.964 

CoCoRaHS
IN-AL-39
A2 Web Hosting
Creative Commons License
GoDaddy
Look for:

loaded 2017-12-12 02:02:34 • last modified 2010-11-18 10:43:29
Privacy PolicyDisclaimer
• wx.awcolley.com is powered by PmWiki v.2002016 •
• all content (unless otherwise noted) © 2017 A W Colley